Time;durP1;ratioP1;P1;durP2;ratioP2;P2;SDS_P1;SDS_P2;PMS_P1;PMS_P2;Temp;Humidity;BMP_temperature;BMP_pressure;BME280_temperature;BME280_humidity;BME280_pressure;Samples;Min_cycle;Max_cycle;Signal;HPM_P1;HPM_P2
2021/03/03 00:00:53;;;;;;;5.10;3.17;;;;;;;;;;5119042;27;20031;-75
2021/03/03 00:03:18;;;;;;;8.85;3.47;;;;;;;;;;5137318;27;20043;-75
2021/03/03 00:05:44;;;;;;;5.25;3.22;;;;;;;;;;5136936;27;20034;-75
2021/03/03 00:08:09;;;;;;;5.90;2.92;;;;;;;;;;5125081;27;20116;-75
2021/03/03 00:10:34;;;;;;;5.63;2.92;;;;;;;;;;5115666;28;20032;-75
2021/03/03 00:13:00;;;;;;;4.85;3.17;;;;;;;;;;5116374;28;20040;-75
2021/03/03 00:15:25;;;;;;;6.97;3.60;;;;;;;;;;5116019;28;20032;-75
2021/03/03 00:17:50;;;;;;;4.78;3.08;;;;;;;;;;5098205;28;20066;-74
2021/03/03 00:20:16;;;;;;;6.18;3.38;;;;;;;;;;5133304;27;20439;-74
2021/03/03 00:22:42;;;;;;;5.05;2.72;;;;;;;;;;5136991;27;20069;-75
2021/03/03 00:25:08;;;;;;;6.85;4.05;;;;;;;;;;5136770;27;20031;-75
2021/03/03 00:27:34;;;;;;;7.00;4.00;;;;;;;;;;5118590;27;20079;-75
2021/03/03 00:29:59;;;;;;;9.80;4.25;;;;;;;;;;5136889;27;20380;-75
2021/03/03 00:32:24;;;;;;;9.32;3.40;;;;;;;;;;5135541;27;20039;-74
2021/03/03 00:34:50;;;;;;;5.50;3.35;;;;;;;;;;5136645;27;20050;-75
2021/03/03 00:37:15;;;;;;;9.40;3.25;;;;;;;;;;5118422;27;20039;-75
2021/03/03 00:39:41;;;;;;;6.35;3.42;;;;;;;;;;5136178;27;20038;-75
2021/03/03 00:42:06;;;;;;;5.38;3.53;;;;;;;;;;5137012;27;20031;-75
2021/03/03 00:44:32;;;;;;;6.07;3.65;;;;;;;;;;5118082;27;20078;-75
2021/03/03 00:46:58;;;;;;;6.00;3.20;;;;;;;;;;5136456;27;20054;-75
2021/03/03 00:49:23;;;;;;;8.38;3.40;;;;;;;;;;5135694;27;20424;-75
2021/03/03 00:51:48;;;;;;;7.78;2.88;;;;;;;;;;5100631;27;20034;-75
2021/03/03 00:54:15;;;;;;;7.28;3.40;;;;;;;;;;5117813;27;20076;-75
2021/03/03 00:56:43;;;;;;;6.68;4.03;;;;;;;;;;5136327;27;20527;-75
2021/03/03 00:59:12;;;;;;;5.35;3.25;;;;;;;;;;5136347;27;20484;-75
2021/03/03 01:01:37;;;;;;;5.57;3.17;;;;;;;;;;5135895;27;20042;-75
2021/03/03 01:04:06;;;;;;;6.43;3.42;;;;;;;;;;5115587;28;20030;-75
2021/03/03 01:06:36;;;;;;;6.97;3.88;;;;;;;;;;5097454;28;20443;-75
2021/03/03 01:09:02;;;;;;;8.45;3.70;;;;;;;;;;5097129;28;20039;-75
2021/03/03 01:11:30;;;;;;;8.18;4.43;;;;;;;;;;5097385;28;20027;-75
2021/03/03 01:13:59;;;;;;;7.38;4.32;;;;;;;;;;5115373;28;20405;-75
2021/03/03 01:16:26;;;;;;;10.52;3.60;;;;;;;;;;5097400;28;20037;-75
2021/03/03 01:18:58;;;;;;;5.78;3.63;;;;;;;;;;5097147;28;20028;-75
2021/03/03 01:21:23;;;;;;;6.93;3.72;;;;;;;;;;5115380;28;20049;-75
2021/03/03 01:23:49;;;;;;;10.32;3.40;;;;;;;;;;5134690;27;20023;-75
2021/03/03 01:26:14;;;;;;;5.90;3.60;;;;;;;;;;5135912;27;20046;-76
2021/03/03 01:28:39;;;;;;;7.93;3.53;;;;;;;;;;5117583;27;20069;-75
2021/03/03 01:31:08;;;;;;;7.38;3.45;;;;;;;;;;5135775;27;20042;-75
2021/03/03 01:33:33;;;;;;;7.57;3.22;;;;;;;;;;5135818;27;20030;-75
2021/03/03 01:35:59;;;;;;;8.55;3.80;;;;;;;;;;5135177;27;20043;-76
2021/03/03 01:38:24;;;;;;;7.85;3.05;;;;;;;;;;5135919;27;20122;-75
2021/03/03 01:40:51;;;;;;;10.80;4.10;;;;;;;;;;5135599;27;20088;-76
2021/03/03 01:43:17;;;;;;;7.03;3.75;;;;;;;;;;5135517;27;20366;-75
2021/03/03 01:45:42;;;;;;;6.80;3.25;;;;;;;;;;5134504;27;20076;-75
2021/03/03 01:48:10;;;;;;;6.15;3.33;;;;;;;;;;5135850;27;20481;-76
2021/03/03 01:50:38;;;;;;;6.40;3.10;;;;;;;;;;5134615;27;20035;-75
2021/03/03 01:53:04;;;;;;;7.80;3.42;;;;;;;;;;5117136;27;20091;-76
2021/03/03 01:55:29;;;;;;;6.53;3.70;;;;;;;;;;5099426;27;20031;-76
2021/03/03 01:57:55;;;;;;;8.32;3.70;;;;;;;;;;5135527;27;20386;-75
2021/03/03 02:00:21;;;;;;;8.05;4.30;;;;;;;;;;5116954;27;20038;-75
2021/03/03 02:02:47;;;;;;;6.38;3.75;;;;;;;;;;5134632;27;20023;-75
2021/03/03 02:05:13;;;;;;;5.55;3.63;;;;;;;;;;5135203;27;20038;-76
2021/03/03 02:08:06;;;;;;;6.28;3.70;;;;;;;;;;5135121;27;20068;-76
2021/03/03 02:10:37;;;;;;;7.20;3.80;;;;;;;;;;5134970;27;20058;-75
2021/03/03 02:13:10;;;;;;;10.43;4.10;;;;;;;;;;5133997;27;20031;-76
2021/03/03 02:15:37;;;;;;;6.10;3.70;;;;;;;;;;5134233;27;20083;-76
2021/03/03 02:18:05;;;;;;;6.18;3.67;;;;;;;;;;5134768;27;20031;-76
2021/03/03 02:20:35;;;;;;;8.02;3.47;;;;;;;;;;5133853;27;20153;-76
2021/03/03 02:23:27;;;;;;;5.85;3.70;;;;;;;;;;5134699;27;20061;-76
2021/03/03 02:25:53;;;;;;;5.20;3.15;;;;;;;;;;5134024;27;20038;-76
2021/03/03 02:28:20;;;;;;;6.13;3.60;;;;;;;;;;5115993;27;20191;-76
2021/03/03 02:30:46;;;;;;;8.15;3.20;;;;;;;;;;5134816;27;20388;-76
2021/03/03 02:33:15;;;;;;;5.85;3.38;;;;;;;;;;5134492;27;20048;-76
2021/03/03 02:35:41;;;;;;;8.80;3.88;;;;;;;;;;5134477;27;20026;-76
2021/03/03 02:38:07;;;;;;;6.55;4.07;;;;;;;;;;5134527;27;20031;-76
2021/03/03 02:40:33;;;;;;;7.50;3.95;;;;;;;;;;5134271;27;20089;-76
2021/03/03 02:43:00;;;;;;;7.43;3.60;;;;;;;;;;5134426;27;20488;-76
2021/03/03 02:45:26;;;;;;;8.48;4.88;;;;;;;;;;5116350;28;20114;-76
2021/03/03 02:47:53;;;;;;;5.90;3.45;;;;;;;;;;5134397;27;20058;-76
2021/03/03 02:50:18;;;;;;;6.43;3.75;;;;;;;;;;5134838;27;20038;-76
2021/03/03 02:52:56;;;;;;;8.05;4.57;;;;;;;;;;5134502;27;20031;-76
2021/03/03 02:55:24;;;;;;;5.65;3.58;;;;;;;;;;5133168;27;20485;-76
2021/03/03 02:57:49;;;;;;;7.15;3.55;;;;;;;;;;5116203;28;20046;-76
2021/03/03 03:00:28;;;;;;;6.97;3.88;;;;;;;;;;5134301;28;20030;-75
2021/03/03 03:03:09;;;;;;;10.55;4.05;;;;;;;;;;5115694;28;20060;-76
2021/03/03 03:05:35;;;;;;;6.95;3.50;;;;;;;;;;5133981;27;20027;-76
2021/03/03 03:08:01;;;;;;;7.65;3.30;;;;;;;;;;5134230;28;20031;-76
2021/03/03 03:10:27;;;;;;;7.65;3.65;;;;;;;;;;5133574;28;20062;-76
2021/03/03 03:12:56;;;;;;;9.43;3.70;;;;;;;;;;5133784;28;20058;-76
2021/03/03 03:15:30;;;;;;;5.63;3.10;;;;;;;;;;5133985;27;20031;-76
2021/03/03 03:18:03;;;;;;;5.85;2.88;;;;;;;;;;5114856;28;20046;-77
2021/03/03 03:20:32;;;;;;;7.05;3.30;;;;;;;;;;5133472;28;20035;-77
2021/03/03 03:22:59;;;;;;;7.25;3.40;;;;;;;;;;5134172;28;20031;-78
2021/03/03 03:25:26;;;;;;;5.90;3.40;;;;;;;;;;5133552;27;20031;-76
2021/03/03 03:27:52;;;;;;;7.03;3.08;;;;;;;;;;5133927;28;20046;-76
2021/03/03 03:30:18;;;;;;;5.95;3.50;;;;;;;;;;5134283;28;20085;-76
2021/03/03 03:32:43;;;;;;;7.32;3.90;;;;;;;;;;5133617;28;20516;-77
2021/03/03 03:35:10;;;;;;;6.63;3.70;;;;;;;;;;5132971;27;20027;-77
2021/03/03 03:37:39;;;;;;;6.75;3.60;;;;;;;;;;5133793;28;20035;-77
2021/03/03 03:40:05;;;;;;;13.65;4.15;;;;;;;;;;5133877;28;20039;-76
2021/03/03 03:42:31;;;;;;;7.43;3.42;;;;;;;;;;5115302;28;20039;-77
2021/03/03 03:44:57;;;;;;;5.07;3.40;;;;;;;;;;5115155;28;20114;-77
2021/03/03 03:47:23;;;;;;;4.53;3.25;;;;;;;;;;5114585;28;20085;-76
2021/03/03 03:49:50;;;;;;;6.60;2.88;;;;;;;;;;5133038;28;20126;-77
2021/03/03 03:52:20;;;;;;;7.47;3.83;;;;;;;;;;5133687;28;20043;-76
2021/03/03 03:54:52;;;;;;;8.50;3.70;;;;;;;;;;5115317;28;20039;-76
2021/03/03 03:57:19;;;;;;;11.40;5.13;;;;;;;;;;5133158;28;20035;-75
2021/03/03 03:59:44;;;;;;;10.90;5.43;;;;;;;;;;5133714;28;20045;-76
2021/03/03 04:02:10;;;;;;;10.27;5.00;;;;;;;;;;5098132;28;20400;-75
2021/03/03 04:04:36;;;;;;;11.73;5.22;;;;;;;;;;5134595;27;20379;-77
2021/03/03 04:07:03;;;;;;;10.10;5.88;;;;;;;;;;5133688;27;20031;-76
2021/03/03 04:09:29;;;;;;;20.05;6.68;;;;;;;;;;5136792;27;20040;-77
2021/03/03 04:11:55;;;;;;;11.07;6.05;;;;;;;;;;5137332;27;20080;-76
2021/03/03 04:14:20;;;;;;;16.52;5.70;;;;;;;;;;5137090;27;20062;-76
2021/03/03 04:16:46;;;;;;;10.43;6.03;;;;;;;;;;5118758;27;20031;-76
2021/03/03 04:19:11;;;;;;;18.85;6.38;;;;;;;;;;5137042;27;20557;-76
2021/03/03 04:21:36;;;;;;;15.68;6.13;;;;;;;;;;5118608;27;20042;-76
2021/03/03 04:24:02;;;;;;;12.02;6.45;;;;;;;;;;5137040;27;20035;-76
2021/03/03 04:26:27;;;;;;;12.45;6.93;;;;;;;;;;5136922;27;20027;-76
2021/03/03 04:28:53;;;;;;;11.52;6.55;;;;;;;;;;5136005;27;20046;-76
2021/03/03 04:31:18;;;;;;;12.38;6.35;;;;;;;;;;5136845;27;20035;-76
2021/03/03 04:33:44;;;;;;;12.65;6.93;;;;;;;;;;5136730;27;20386;-76
2021/03/03 04:36:09;;;;;;;11.30;5.63;;;;;;;;;;5136697;27;20015;-76
2021/03/03 04:38:34;;;;;;;13.20;7.05;;;;;;;;;;5136297;27;20505;-76
2021/03/03 04:41:00;;;;;;;13.68;6.47;;;;;;;;;;5136745;27;20472;-76
2021/03/03 04:43:26;;;;;;;10.77;5.78;;;;;;;;;;5136512;27;20414;-76
2021/03/03 04:45:51;;;;;;;12.27;6.10;;;;;;;;;;5101371;27;20035;-77
2021/03/03 04:48:16;;;;;;;11.60;5.93;;;;;;;;;;5136136;27;20031;-76
2021/03/03 04:50:42;;;;;;;12.80;5.82;;;;;;;;;;5117227;27;20035;-76
2021/03/03 04:53:07;;;;;;;13.80;6.65;;;;;;;;;;5136438;27;20050;-76
2021/03/03 04:55:32;;;;;;;18.55;6.05;;;;;;;;;;5136279;27;20084;-76
2021/03/03 04:57:58;;;;;;;12.52;7.13;;;;;;;;;;5136347;27;20049;-76
2021/03/03 05:00:23;;;;;;;11.82;5.95;;;;;;;;;;5117664;27;20039;-76
2021/03/03 05:02:49;;;;;;;12.23;6.57;;;;;;;;;;5136189;27;20035;-76
2021/03/03 05:05:14;;;;;;;11.55;6.10;;;;;;;;;;5117707;27;20031;-76
2021/03/03 05:07:40;;;;;;;11.73;6.15;;;;;;;;;;5136165;27;20027;-76
2021/03/03 05:10:06;;;;;;;12.55;6.25;;;;;;;;;;5136189;27;20042;-77
2021/03/03 05:12:31;;;;;;;13.23;7.75;;;;;;;;;;5117580;27;20030;-76
2021/03/03 05:14:57;;;;;;;10.65;6.10;;;;;;;;;;5117322;27;20699;-76
2021/03/03 05:17:22;;;;;;;11.57;5.80;;;;;;;;;;5136023;27;20041;-76
2021/03/03 05:19:48;;;;;;;11.13;6.47;;;;;;;;;;5135656;27;20030;-76
2021/03/03 05:22:13;;;;;;;14.07;6.93;;;;;;;;;;5117480;27;20041;-76
2021/03/03 05:24:39;;;;;;;13.23;6.18;;;;;;;;;;5099520;27;20117;-76
2021/03/03 05:27:04;;;;;;;13.10;6.53;;;;;;;;;;5135747;27;20042;-76
2021/03/03 05:29:31;;;;;;;11.90;7.13;;;;;;;;;;5117245;27;20052;-76
2021/03/03 05:31:57;;;;;;;12.73;7.15;;;;;;;;;;5135088;27;20118;-76
2021/03/03 05:34:23;;;;;;;18.73;8.65;;;;;;;;;;5100082;27;20029;-76
2021/03/03 05:36:48;;;;;;;17.27;8.18;;;;;;;;;;5117000;27;20400;-76
2021/03/03 05:39:13;;;;;;;19.85;8.50;;;;;;;;;;5135480;27;20035;-76
2021/03/03 05:41:39;;;;;;;22.52;8.82;;;;;;;;;;5135329;27;20031;-76
2021/03/03 05:44:07;;;;;;;14.25;7.82;;;;;;;;;;5099266;27;20090;-76
2021/03/03 05:46:33;;;;;;;19.77;8.93;;;;;;;;;;5117126;27;20088;-76
2021/03/03 05:49:03;;;;;;;16.73;9.30;;;;;;;;;;5116831;27;20035;-76
2021/03/03 05:51:31;;;;;;;17.92;9.35;;;;;;;;;;5116206;27;20134;-76
2021/03/03 05:53:58;;;;;;;13.13;8.32;;;;;;;;;;5116661;27;20035;-76
2021/03/03 05:56:24;;;;;;;20.13;9.10;;;;;;;;;;5135031;27;20039;-76
2021/03/03 05:58:51;;;;;;;15.98;7.88;;;;;;;;;;5135192;27;20125;-76
2021/03/03 06:01:17;;;;;;;14.75;9.35;;;;;;;;;;5135286;27;20069;-77
2021/03/03 06:03:43;;;;;;;13.25;8.15;;;;;;;;;;5116701;27;20457;-76
2021/03/03 06:06:09;;;;;;;13.95;8.15;;;;;;;;;;5135010;27;20035;-76
2021/03/03 06:08:34;;;;;;;14.52;7.68;;;;;;;;;;5134959;27;20072;-77
2021/03/03 06:11:00;;;;;;;18.77;8.00;;;;;;;;;;5134747;27;20384;-76
2021/03/03 06:13:27;;;;;;;18.23;8.20;;;;;;;;;;5134938;27;20130;-77
2021/03/03 06:15:52;;;;;;;14.60;7.45;;;;;;;;;;5134472;27;20027;-76
2021/03/03 06:18:20;;;;;;;17.95;6.90;;;;;;;;;;5099355;27;20484;-76
2021/03/03 06:20:48;;;;;;;10.32;6.47;;;;;;;;;;5134011;27;20045;-77
2021/03/03 06:23:22;;;;;;;9.60;6.28;;;;;;;;;;5134665;27;20027;-76
2021/03/03 06:25:50;;;;;;;26.23;5.78;;;;;;;;;;5116695;27;20035;-76
2021/03/03 06:28:37;;;;;;;11.75;6.78;;;;;;;;;;5134734;27;20034;-76
2021/03/03 06:31:24;;;;;;;11.55;6.57;;;;;;;;;;5134032;27;20035;-76
2021/03/03 06:33:51;;;;;;;20.17;6.40;;;;;;;;;;5134320;27;20110;-76
2021/03/03 06:36:29;;;;;;;9.85;6.53;;;;;;;;;;5134467;27;20038;-76
2021/03/03 06:38:55;;;;;;;14.98;6.28;;;;;;;;;;5134532;27;20132;-76
2021/03/03 06:41:21;;;;;;;12.25;7.60;;;;;;;;;;5115868;27;20396;-76
2021/03/03 06:43:57;;;;;;;14.40;6.38;;;;;;;;;;5134451;27;20059;-76
2021/03/03 06:46:23;;;;;;;12.05;7.00;;;;;;;;;;5134449;27;20053;-76
2021/03/03 06:48:49;;;;;;;10.05;5.80;;;;;;;;;;5115193;27;20581;-76
2021/03/03 06:51:23;;;;;;;11.20;7.00;;;;;;;;;;5134242;27;20035;-76
2021/03/03 06:53:49;;;;;;;11.70;7.47;;;;;;;;;;5134185;27;20042;-76
2021/03/03 06:56:31;;;;;;;14.68;7.38;;;;;;;;;;5134434;28;20373;-76
2021/03/03 06:59:18;;;;;;;14.50;9.10;;;;;;;;;;5133881;28;20031;-76
2021/03/03 07:01:45;;;;;;;14.40;9.50;;;;;;;;;;5135055;28;20039;-75
2021/03/03 07:04:17;;;;;;;11.38;7.88;;;;;;;;;;5116550;28;20023;-78
2021/03/03 07:06:43;;;;;;;12.57;8.63;;;;;;;;;;5134871;28;20034;-79
2021/03/03 07:09:09;;;;;;;17.30;10.00;;;;;;;;;;5116371;28;20392;-76
2021/03/03 07:11:34;;;;;;;15.38;9.52;;;;;;;;;;5135099;28;20081;-77
2021/03/03 07:14:12;;;;;;;15.15;8.75;;;;;;;;;;5135154;27;20039;-77
2021/03/03 07:17:09;;;;;;;27.80;8.18;;;;;;;;;;5099465;28;20043;-77
2021/03/03 07:19:36;;;;;;;;;;;;;;;;;;5118770;28;20490;-77
2021/03/03 07:22:02;;;;;;;34.20;8.02;;;;;;;;;;5136467;28;19970;-78
2021/03/03 07:24:28;;;;;;;18.17;9.30;;;;;;;;;;5117192;28;20019;-77
2021/03/03 07:26:54;;;;;;;15.55;8.70;;;;;;;;;;5134460;28;20035;-78
2021/03/03 07:29:19;;;;;;;15.73;9.07;;;;;;;;;;5134022;28;20039;-76
2021/03/03 07:31:45;;;;;;;15.90;8.25;;;;;;;;;;5115738;28;20043;-76
2021/03/03 07:34:10;;;;;;;17.77;9.85;;;;;;;;;;5115484;28;20046;-76
2021/03/03 07:36:37;;;;;;;14.02;8.63;;;;;;;;;;5133802;28;20042;-76
2021/03/03 07:39:04;;;;;;;15.50;9.15;;;;;;;;;;5133958;28;20066;-77
2021/03/03 07:41:39;;;;;;;19.38;10.25;;;;;;;;;;5133802;27;20521;-77
2021/03/03 07:44:05;;;;;;;16.83;10.80;;;;;;;;;;5136275;27;20446;-77
2021/03/03 07:46:30;;;;;;;18.00;11.35;;;;;;;;;;5119589;27;20384;-76
2021/03/03 07:48:56;;;;;;;15.93;10.95;;;;;;;;;;5136602;27;20035;-75
2021/03/03 07:51:25;;;;;;;17.60;10.52;;;;;;;;;;5127638;27;20057;-76
2021/03/03 07:53:51;;;;;;;16.77;9.80;;;;;;;;;;5124914;27;20031;-77
2021/03/03 07:56:17;;;;;;;15.95;10.00;;;;;;;;;;5128730;27;20039;-77
2021/03/03 07:58:43;;;;;;;16.80;9.63;;;;;;;;;;5104297;28;20046;-78
2021/03/03 08:01:10;;;;;;;34.75;10.07;;;;;;;;;;5117915;28;20122;-78
2021/03/03 08:03:47;;;;;;;23.52;9.45;;;;;;;;;;5099564;28;20071;-77
2021/03/03 08:06:23;;;;;;;14.48;8.63;;;;;;;;;;5119479;28;20036;-79
2021/03/03 08:09:13;;;;;;;19.23;9.27;;;;;;;;;;5118836;28;20053;-78
2021/03/03 08:11:44;;;;;;;14.85;8.80;;;;;;;;;;5107988;28;20044;-77
2021/03/03 08:14:33;;;;;;;46.25;10.25;;;;;;;;;;5118685;28;20040;-76
2021/03/03 08:17:04;;;;;;;14.98;7.93;;;;;;;;;;5100139;28;20088;-79
2021/03/03 08:19:57;;;;;;;13.63;8.18;;;;;;;;;;5118673;28;20054;-76
2021/03/03 08:22:52;;;;;;;13.27;8.23;;;;;;;;;;5118714;28;20124;-79
2021/03/03 08:25:44;;;;;;;13.80;8.52;;;;;;;;;;5136061;27;20038;-78
2021/03/03 08:28:39;;;;;;;18.67;9.02;;;;;;;;;;5139779;27;20066;-81
2021/03/03 08:31:21;;;;;;;12.38;7.15;;;;;;;;;;5122205;27;20050;-78
2021/03/03 08:33:49;;;;;;;13.07;8.18;;;;;;;;;;5140343;27;20027;-78
2021/03/03 08:36:17;;;;;;;13.55;7.63;;;;;;;;;;5119772;27;20050;-75
2021/03/03 08:38:49;;;;;;;10.35;6.78;;;;;;;;;;5136571;27;20038;-73
2021/03/03 08:41:15;;;;;;;10.98;6.82;;;;;;;;;;5136636;27;20099;-74
2021/03/03 08:43:42;;;;;;;8.23;5.40;;;;;;;;;;5118170;27;20051;-74
2021/03/03 08:46:17;;;;;;;11.70;5.95;;;;;;;;;;5118212;27;20027;-74
2021/03/03 08:48:43;;;;;;;9.57;5.90;;;;;;;;;;5136042;27;20436;-74
2021/03/03 08:51:21;;;;;;;8.38;5.53;;;;;;;;;;5136632;27;20107;-74
2021/03/03 08:53:54;;;;;;;10.13;5.72;;;;;;;;;;5136088;27;20035;-76
2021/03/03 08:56:35;;;;;;;11.23;6.45;;;;;;;;;;5136445;27;20426;-74
2021/03/03 08:59:03;;;;;;;9.45;5.72;;;;;;;;;;5117786;27;20165;-75
2021/03/03 09:01:52;;;;;;;12.07;6.63;;;;;;;;;;5136358;27;20063;-74
2021/03/03 09:04:19;;;;;;;11.75;7.10;;;;;;;;;;5136345;27;20045;-75
2021/03/03 09:06:50;;;;;;;9.38;6.40;;;;;;;;;;5136231;27;20117;-75
2021/03/03 09:09:15;;;;;;;9.20;5.88;;;;;;;;;;5117151;27;20031;-75
2021/03/03 09:11:41;;;;;;;11.20;6.13;;;;;;;;;;5136098;27;20045;-75
2021/03/03 09:14:07;;;;;;;9.63;5.60;;;;;;;;;;5135794;27;20507;-75
2021/03/03 09:16:32;;;;;;;9.95;6.32;;;;;;;;;;5117578;27;20035;-75
2021/03/03 09:19:08;;;;;;;10.73;6.28;;;;;;;;;;5136166;27;20411;-75
2021/03/03 09:21:34;;;;;;;10.00;6.45;;;;;;;;;;5115409;28;20034;-75
2021/03/03 09:24:08;;;;;;;10.63;6.35;;;;;;;;;;5115315;28;20457;-75
2021/03/03 09:26:33;;;;;;;8.27;6.13;;;;;;;;;;5115033;28;20046;-75
2021/03/03 09:28:59;;;;;;;9.88;6.15;;;;;;;;;;5115210;28;20039;-75
2021/03/03 09:31:32;;;;;;;7.78;6.13;;;;;;;;;;5115179;28;20067;-75
2021/03/03 09:33:59;;;;;;;9.05;6.45;;;;;;;;;;5115219;28;20092;-75
2021/03/03 09:36:25;;;;;;;12.75;7.80;;;;;;;;;;5115351;28;20071;-75
2021/03/03 09:38:58;;;;;;;9.30;6.53;;;;;;;;;;5115303;28;20028;-75
2021/03/03 09:41:24;;;;;;;15.73;7.25;;;;;;;;;;5114827;28;20036;-75
2021/03/03 09:44:07;;;;;;;12.40;7.97;;;;;;;;;;5114728;28;20096;-75
2021/03/03 09:46:56;;;;;;;11.15;6.90;;;;;;;;;;5114743;28;20086;-75
2021/03/03 09:49:26;;;;;;;12.90;8.10;;;;;;;;;;5123646;27;20115;-75
2021/03/03 09:51:52;;;;;;;11.40;7.95;;;;;;;;;;5135139;27;20027;-75
2021/03/03 09:54:27;;;;;;;13.05;8.55;;;;;;;;;;5135522;27;20035;-74
2021/03/03 09:56:53;;;;;;;11.80;7.32;;;;;;;;;;5135394;27;20035;-75
2021/03/03 09:59:19;;;;;;;13.30;8.13;;;;;;;;;;5135474;27;20397;-75
2021/03/03 10:01:44;;;;;;;10.80;7.80;;;;;;;;;;5135469;27;20023;-75
2021/03/03 10:04:10;;;;;;;12.15;7.63;;;;;;;;;;5116564;27;20372;-75
2021/03/03 10:06:35;;;;;;;13.02;8.95;;;;;;;;;;5116110;27;20070;-75
2021/03/03 10:09:01;;;;;;;13.68;8.90;;;;;;;;;;5135382;27;20099;-75
2021/03/03 10:11:27;;;;;;;15.32;8.27;;;;;;;;;;5135277;27;20060;-75
2021/03/03 10:14:05;;;;;;;15.93;7.95;;;;;;;;;;5135048;27;20035;-75
2021/03/03 10:16:31;;;;;;;14.13;8.23;;;;;;;;;;5134851;27;20599;-75
2021/03/03 10:19:02;;;;;;;13.05;8.32;;;;;;;;;;5116377;27;20070;-75
2021/03/03 10:21:27;;;;;;;11.82;8.77;;;;;;;;;;5116198;27;20031;-74
2021/03/03 10:23:53;;;;;;;15.32;9.30;;;;;;;;;;5134873;27;20039;-75
2021/03/03 10:26:22;;;;;;;15.02;9.30;;;;;;;;;;5116416;27;20118;-75
2021/03/03 10:28:51;;;;;;;17.33;9.45;;;;;;;;;;5115510;27;20121;-75
2021/03/03 10:31:19;;;;;;;12.95;9.02;;;;;;;;;;5116297;27;20075;-75
2021/03/03 10:33:47;;;;;;;13.38;8.90;;;;;;;;;;5134533;27;20047;-75
2021/03/03 10:36:15;;;;;;;13.32;8.50;;;;;;;;;;5134489;27;20039;-75
2021/03/03 10:38:53;;;;;;;12.52;8.07;;;;;;;;;;5116277;27;20362;-74
2021/03/03 10:41:33;;;;;;;12.95;9.25;;;;;;;;;;5134663;27;20084;-75
2021/03/03 10:44:03;;;;;;;13.88;9.15;;;;;;;;;;5112833;28;20095;-74
2021/03/03 10:46:28;;;;;;;14.57;8.82;;;;;;;;;;5114524;28;20042;-76
2021/03/03 10:49:11;;;;;;;13.38;8.25;;;;;;;;;;5114311;28;20032;-74
2021/03/03 10:51:38;;;;;;;15.55;9.52;;;;;;;;;;5113406;28;20067;-75
2021/03/03 10:54:04;;;;;;;12.82;9.05;;;;;;;;;;5114135;28;20393;-75
2021/03/03 10:56:41;;;;;;;13.05;8.93;;;;;;;;;;5115299;28;20115;-75
2021/03/03 10:59:10;;;;;;;15.73;10.45;;;;;;;;;;5114222;28;20405;-78
2021/03/03 11:01:51;;;;;;;12.82;8.63;;;;;;;;;;5118196;28;20091;-78
2021/03/03 11:04:17;;;;;;;14.52;9.20;;;;;;;;;;5117451;28;20047;-76
2021/03/03 11:06:43;;;;;;;13.48;9.57;;;;;;;;;;5115566;28;20035;-77
2021/03/03 11:09:13;;;;;;;12.55;8.63;;;;;;;;;;5118604;28;20058;-79
2021/03/03 11:12:06;;;;;;;18.60;9.52;;;;;;;;;;5115317;28;20044;-76
2021/03/03 11:14:32;;;;;;;17.00;10.07;;;;;;;;;;5111734;28;20047;-77
2021/03/03 11:16:59;;;;;;;14.68;9.50;;;;;;;;;;5113224;28;20035;-76
2021/03/03 11:19:26;;;;;;;15.98;9.23;;;;;;;;;;5114791;27;20050;-78
2021/03/03 11:21:52;;;;;;;13.82;9.13;;;;;;;;;;5118567;28;20035;-77
2021/03/03 11:24:19;;;;;;;16.17;9.63;;;;;;;;;;5117033;28;20035;-77
2021/03/03 11:26:45;;;;;;;18.80;10.73;;;;;;;;;;5117316;28;20081;-77
2021/03/03 11:29:11;;;;;;;18.00;11.57;;;;;;;;;;5118091;28;20393;-77
2021/03/03 11:31:38;;;;;;;15.88;10.90;;;;;;;;;;5119773;28;20096;-78
2021/03/03 11:34:03;;;;;;;18.45;10.98;;;;;;;;;;5121106;28;20038;-81
2021/03/03 11:36:29;;;;;;;19.15;10.48;;;;;;;;;;5120934;28;20039;-80
2021/03/03 11:38:55;;;;;;;17.13;10.20;;;;;;;;;;5120140;28;20028;-79
2021/03/03 11:41:21;;;;;;;23.05;11.15;;;;;;;;;;5119720;28;20521;-81
2021/03/03 11:43:47;;;;;;;14.45;10.18;;;;;;;;;;5131747;27;20050;-79
2021/03/03 11:46:13;;;;;;;18.17;9.85;;;;;;;;;;5106394;27;20035;-79
2021/03/03 11:48:38;;;;;;;15.40;10.20;;;;;;;;;;5142665;27;20043;-84
2021/03/03 11:51:04;;;;;;;17.27;10.95;;;;;;;;;;5124332;27;20027;-85
2021/03/03 11:53:30;;;;;;;16.40;10.65;;;;;;;;;;5122067;27;20451;-82
2021/03/03 11:55:55;;;;;;;18.27;10.32;;;;;;;;;;5141802;27;20074;-79
2021/03/03 11:58:21;;;;;;;14.00;9.55;;;;;;;;;;5140647;27;20079;-79
2021/03/03 12:00:46;;;;;;;16.35;9.80;;;;;;;;;;5141413;27;20469;-80
2021/03/03 12:03:12;;;;;;;17.45;10.55;;;;;;;;;;5147456;27;20038;-79
2021/03/03 12:05:37;;;;;;;16.00;10.57;;;;;;;;;;5128303;27;20027;-79
2021/03/03 12:08:04;;;;;;;19.70;10.48;;;;;;;;;;5140810;27;20092;-78
2021/03/03 12:10:31;;;;;;;16.30;10.13;;;;;;;;;;5124945;27;20027;-78
2021/03/03 12:12:57;;;;;;;15.10;10.20;;;;;;;;;;5140883;27;20031;-80
2021/03/03 12:15:22;;;;;;;18.70;10.80;;;;;;;;;;5141204;27;20060;-80
2021/03/03 12:17:47;;;;;;;14.50;10.00;;;;;;;;;;5123175;27;20039;-79
2021/03/03 12:20:13;;;;;;;16.92;10.45;;;;;;;;;;5140151;27;20118;-80
2021/03/03 12:22:38;;;;;;;16.55;10.80;;;;;;;;;;5126075;27;20066;-77
2021/03/03 12:25:04;;;;;;;15.52;10.93;;;;;;;;;;5119552;27;20042;-77
2021/03/03 12:27:30;;;;;;;17.27;11.63;;;;;;;;;;5137263;27;20034;-76
2021/03/03 12:29:55;;;;;;;17.48;11.00;;;;;;;;;;5136358;27;20099;-77
2021/03/03 12:32:21;;;;;;;18.88;10.77;;;;;;;;;;5137109;27;20137;-76
2021/03/03 12:34:46;;;;;;;20.33;11.48;;;;;;;;;;5138896;27;20034;-78
2021/03/03 12:37:12;;;;;;;18.27;11.45;;;;;;;;;;5140533;27;20078;-77
2021/03/03 12:39:38;;;;;;;22.08;12.98;;;;;;;;;;5136841;27;20039;-77
2021/03/03 12:42:04;;;;;;;21.63;11.95;;;;;;;;;;5136914;27;20065;-77
2021/03/03 12:44:29;;;;;;;20.45;12.35;;;;;;;;;;5136461;27;20055;-77
2021/03/03 12:46:55;;;;;;;19.58;12.63;;;;;;;;;;5118496;27;20099;-77
2021/03/03 12:49:21;;;;;;;23.77;13.50;;;;;;;;;;5136119;27;20421;-77
2021/03/03 12:51:46;;;;;;;19.00;13.10;;;;;;;;;;5136726;27;20035;-77
2021/03/03 12:54:12;;;;;;;19.08;12.40;;;;;;;;;;5101242;27;20034;-77
2021/03/03 12:56:37;;;;;;;18.58;12.10;;;;;;;;;;5136621;27;20039;-77
2021/03/03 12:59:04;;;;;;;16.75;12.10;;;;;;;;;;5136434;27;20039;-77
2021/03/03 13:01:29;;;;;;;22.35;13.75;;;;;;;;;;5101032;27;20047;-77
2021/03/03 13:03:54;;;;;;;21.33;13.20;;;;;;;;;;5118244;27;20027;-77
2021/03/03 13:06:21;;;;;;;22.70;12.95;;;;;;;;;;5136398;27;20429;-77
2021/03/03 13:08:46;;;;;;;19.20;12.93;;;;;;;;;;5117802;27;20034;-77
2021/03/03 13:11:12;;;;;;;21.50;12.65;;;;;;;;;;5136495;27;20031;-77
2021/03/03 13:13:37;;;;;;;22.55;12.82;;;;;;;;;;5117705;27;20077;-77
2021/03/03 13:16:03;;;;;;;17.83;11.80;;;;;;;;;;5136029;27;20035;-77
2021/03/03 13:18:28;;;;;;;20.20;13.00;;;;;;;;;;5135413;27;20111;-77
2021/03/03 13:20:54;;;;;;;21.85;14.10;;;;;;;;;;5136263;27;20028;-77
2021/03/03 13:23:21;;;;;;;24.60;15.73;;;;;;;;;;5117512;27;20035;-77
2021/03/03 13:25:46;;;;;;;22.15;14.10;;;;;;;;;;5135800;27;20028;-77
2021/03/03 13:28:12;;;;;;;23.63;15.15;;;;;;;;;;5135948;27;20083;-77
2021/03/03 13:30:39;;;;;;;19.85;12.85;;;;;;;;;;5135855;27;20042;-77
2021/03/03 13:33:05;;;;;;;24.52;14.65;;;;;;;;;;5135964;27;20494;-78
2021/03/03 13:35:30;;;;;;;26.23;12.68;;;;;;;;;;5135777;27;20059;-78
2021/03/03 13:37:55;;;;;;;24.98;14.65;;;;;;;;;;5135821;27;20031;-77
2021/03/03 13:40:21;;;;;;;19.45;13.30;;;;;;;;;;5135792;27;20062;-78
2021/03/03 13:42:47;;;;;;;22.05;13.70;;;;;;;;;;5135584;27;20031;-77
2021/03/03 13:45:13;;;;;;;22.33;14.20;;;;;;;;;;5095862;28;20105;-77
2021/03/03 13:47:38;;;;;;;23.13;14.57;;;;;;;;;;5095417;28;20378;-78
2021/03/03 13:50:07;;;;;;;23.83;14.43;;;;;;;;;;5096574;28;20385;-78
2021/03/03 13:52:33;;;;;;;26.65;15.15;;;;;;;;;;5096819;28;20393;-79
2021/03/03 13:54:58;;;;;;;35.97;16.30;;;;;;;;;;5096449;28;20040;-78
2021/03/03 13:57:24;;;;;;;25.70;15.95;;;;;;;;;;5095152;28;20043;-78
2021/03/03 13:59:49;;;;;;;22.80;14.32;;;;;;;;;;5093972;28;20089;-78
2021/03/03 14:02:15;;;;;;;22.25;13.88;;;;;;;;;;5093679;28;20077;-78
2021/03/03 14:04:40;;;;;;;21.10;14.07;;;;;;;;;;5095456;28;20489;-78
2021/03/03 14:07:06;;;;;;;20.88;13.63;;;;;;;;;;5095319;28;20527;-78
2021/03/03 14:09:31;;;;;;;24.83;13.10;;;;;;;;;;5094593;28;20040;-78
2021/03/03 14:11:57;;;;;;;21.48;14.15;;;;;;;;;;5094709;28;20401;-78
2021/03/03 14:14:22;;;;;;;27.15;13.57;;;;;;;;;;5094419;28;20032;-78
2021/03/03 14:16:48;;;;;;;22.83;13.50;;;;;;;;;;5092971;28;20035;-78
2021/03/03 14:19:13;;;;;;;25.20;13.45;;;;;;;;;;5074326;28;20027;-78
2021/03/03 14:21:38;;;;;;;23.67;13.88;;;;;;;;;;5074617;28;20029;-78
2021/03/03 14:24:04;;;;;;;22.48;14.52;;;;;;;;;;5074292;28;20072;-78
2021/03/03 14:26:32;;;;;;;33.78;14.75;;;;;;;;;;5091047;28;20042;-78
2021/03/03 14:28:59;;;;;;;21.98;14.40;;;;;;;;;;5110393;28;20461;-78
2021/03/03 14:31:24;;;;;;;22.85;13.70;;;;;;;;;;5094808;28;20043;-78
2021/03/03 14:33:50;;;;;;;28.25;14.55;;;;;;;;;;5093699;28;20032;-78
2021/03/03 14:36:15;;;;;;;27.35;14.48;;;;;;;;;;5094614;28;20036;-78